createdAt,value
2024-01-05T00:01:16.082Z,7.07
2024-01-05T00:03:42.953Z,7.11
2024-01-05T00:06:12.375Z,7.07
2024-01-05T00:08:39.154Z,7.13
2024-01-05T00:11:05.988Z,7.09
2024-01-05T00:13:32.832Z,7.06
2024-01-05T00:15:59.680Z,7.06
2024-01-05T00:18:28.149Z,7.00
2024-01-05T00:20:55.018Z,7.02
2024-01-05T00:23:21.989Z,7.02
2024-01-05T00:25:48.724Z,7.05
2024-01-05T00:28:15.537Z,7.04
2024-01-05T00:30:42.481Z,7.09
2024-01-05T00:33:09.451Z,7.10
2024-01-05T00:35:36.244Z,7.07
2024-01-05T00:38:05.532Z,7.02
2024-01-05T00:40:32.258Z,7.06
2024-01-05T00:42:59.072Z,7.04
2024-01-05T00:45:26.177Z,7.00
2024-01-05T00:47:53.711Z,6.97
2024-01-05T00:50:20.565Z,7.00
2024-01-05T00:52:47.321Z,6.88
2024-01-05T00:55:14.165Z,6.86
2024-01-05T00:57:40.963Z,6.81
2024-01-05T01:00:09.963Z,6.79
2024-01-05T01:02:38.218Z,6.87
2024-01-05T01:05:05.628Z,6.96
2024-01-05T01:07:32.586Z,6.94
2024-01-05T01:09:59.341Z,6.91
2024-01-05T01:12:27.373Z,6.90
2024-01-05T01:14:54.464Z,6.89
2024-01-05T01:17:23.430Z,6.87
2024-01-05T01:19:50.459Z,6.80
2024-01-05T01:22:17.260Z,6.81
2024-01-05T01:24:44.458Z,6.83
2024-01-05T01:27:11.327Z,6.86
2024-01-05T01:29:38.118Z,6.77
2024-01-05T01:32:05.114Z,6.76
2024-01-05T01:34:32.025Z,6.79
2024-01-05T01:36:58.832Z,6.72
2024-01-05T01:39:27.955Z,6.79
2024-01-05T01:41:54.811Z,6.77
2024-01-05T01:44:21.685Z,6.76
2024-01-05T01:46:49.017Z,6.78
2024-01-05T01:49:15.854Z,6.70
2024-01-05T01:51:42.940Z,6.72
2024-01-05T01:54:09.851Z,6.77
2024-01-05T01:56:37.894Z,6.77
2024-01-05T01:59:06.692Z,6.79
2024-01-05T02:01:33.919Z,6.74
2024-01-05T02:04:01.386Z,6.67
2024-01-05T02:06:28.483Z,6.65
2024-01-05T02:08:56.945Z,6.61
2024-01-05T02:11:23.681Z,6.60
2024-01-05T02:13:50.597Z,6.60
2024-01-05T02:16:17.528Z,6.48
2024-01-05T02:19:04.489Z,6.51
2024-01-05T02:21:34.652Z,6.44
2024-01-05T02:24:01.684Z,6.48
2024-01-05T02:26:28.567Z,6.46
2024-01-05T02:28:55.363Z,6.52
2024-01-05T02:31:22.350Z,6.51
2024-01-05T02:33:49.259Z,6.53
2024-01-05T02:36:16.300Z,6.53
2024-01-05T02:38:43.119Z,6.49
2024-01-05T02:41:11.051Z,6.46
2024-01-05T02:43:37.921Z,6.38
2024-01-05T02:46:04.879Z,6.42
2024-01-05T02:48:31.760Z,6.36
2024-01-05T02:50:58.663Z,6.32
2024-01-05T02:53:25.476Z,6.39
2024-01-05T02:55:52.256Z,6.39
2024-01-05T02:58:19.092Z,6.38
2024-01-05T03:00:46.083Z,6.30
2024-01-05T03:03:13.150Z,6.27
2024-01-05T03:05:40.269Z,6.27
2024-01-05T03:08:07.564Z,6.30
2024-01-05T03:10:34.486Z,6.26
2024-01-05T03:13:01.296Z,6.24
2024-01-05T03:15:28.137Z,6.18
2024-01-05T03:17:55.144Z,6.24
2024-01-05T03:20:24.011Z,6.13
2024-01-05T03:22:50.769Z,6.11
2024-01-05T03:25:17.633Z,6.06
2024-01-05T03:27:48.276Z,6.09
2024-01-05T03:30:15.325Z,6.05
2024-01-05T03:32:43.296Z,5.99
2024-01-05T03:35:10.118Z,5.99
2024-01-05T03:37:37.206Z,5.97
2024-01-05T03:40:04.176Z,5.95
2024-01-05T03:42:31.250Z,5.92
2024-01-05T03:44:58.136Z,5.83
2024-01-05T03:47:24.902Z,5.90
2024-01-05T03:49:51.866Z,5.90
2024-01-05T03:52:18.700Z,5.84
2024-01-05T03:54:45.504Z,5.90
2024-01-05T03:57:12.284Z,5.85
2024-01-05T03:59:39.052Z,5.74
2024-01-05T04:02:06.017Z,5.76
2024-01-05T04:04:32.865Z,5.77
2024-01-05T04:06:59.760Z,5.77
2024-01-05T04:09:26.846Z,5.76
2024-01-05T04:11:53.693Z,5.82
2024-01-05T04:14:20.458Z,5.88
2024-01-05T04:16:47.465Z,5.73
2024-01-05T04:19:14.519Z,5.74
2024-01-05T04:21:41.869Z,5.77
2024-01-05T04:24:08.998Z,5.83
2024-01-05T04:26:36.964Z,5.79
2024-01-05T04:29:03.951Z,5.77
2024-01-05T04:31:30.766Z,5.75
2024-01-05T04:33:57.905Z,5.64
2024-01-05T04:36:24.752Z,5.69
2024-01-05T04:38:51.554Z,5.77
2024-01-05T04:41:19.204Z,5.74
2024-01-05T04:43:47.189Z,5.69
2024-01-05T04:46:14.069Z,5.74
2024-01-05T04:48:41.045Z,5.79
2024-01-05T04:51:08.026Z,5.88
2024-01-05T04:53:34.833Z,5.81
2024-01-05T04:56:01.656Z,5.90
2024-01-05T04:58:28.568Z,5.89
2024-01-05T05:00:55.635Z,5.86
2024-01-05T05:03:22.783Z,5.84
2024-01-05T05:05:49.832Z,5.82
2024-01-05T05:08:17.749Z,5.85
2024-01-05T05:10:44.567Z,5.84
2024-01-05T05:13:11.495Z,5.81
2024-01-05T05:15:39.392Z,5.86
2024-01-05T05:18:06.597Z,5.81
2024-01-05T05:20:34.184Z,5.87
2024-01-05T05:23:01.143Z,5.80
2024-01-05T05:25:27.926Z,5.82
2024-01-05T05:27:54.725Z,5.85
2024-01-05T05:30:21.613Z,5.79
2024-01-05T05:32:48.576Z,5.85
2024-01-05T05:35:15.491Z,5.85
2024-01-05T05:37:42.228Z,5.81
2024-01-05T05:40:10.404Z,5.78
2024-01-05T05:42:37.436Z,5.78
2024-01-05T05:45:04.486Z,5.84
2024-01-05T05:47:32.507Z,5.85
2024-01-05T05:49:59.266Z,5.84
2024-01-05T05:52:29.854Z,5.85
2024-01-05T05:54:57.899Z,5.84
2024-01-05T05:57:24.763Z,5.84
2024-01-05T05:59:52.978Z,5.84
2024-01-05T06:02:20.243Z,5.89
2024-01-05T06:04:47.287Z,5.84
2024-01-05T06:07:14.502Z,5.81
2024-01-05T06:09:43.986Z,5.79
2024-01-05T06:12:11.310Z,5.87
2024-01-05T06:14:39.373Z,5.83
2024-01-05T06:17:06.201Z,5.78
2024-01-05T06:19:33.068Z,5.84
2024-01-05T06:22:01.204Z,5.86
2024-01-05T06:24:29.428Z,5.87
2024-01-05T06:26:56.278Z,5.88
2024-01-05T06:29:23.037Z,5.90
2024-01-05T06:31:50.019Z,5.92
2024-01-05T06:34:17.130Z,5.92
2024-01-05T06:36:44.354Z,5.88
2024-01-05T06:39:11.252Z,5.93
2024-01-05T06:41:38.098Z,5.95
2024-01-05T06:44:05.850Z,5.99
2024-01-05T06:46:32.583Z,5.94
2024-01-05T06:48:59.665Z,5.99
2024-01-05T06:51:31.094Z,5.95
2024-01-05T06:53:59.100Z,5.92
2024-01-05T06:56:29.103Z,5.96
2024-01-05T06:58:56.696Z,5.92
2024-01-05T07:01:24.271Z,5.97
2024-01-05T07:03:51.166Z,5.95
2024-01-05T07:06:18.104Z,5.94
2024-01-05T07:08:44.875Z,5.93
2024-01-05T07:11:23.377Z,5.95
2024-01-05T07:13:50.549Z,6.03
2024-01-05T07:16:21.545Z,6.02
2024-01-05T07:18:49.248Z,6.06
2024-01-05T07:21:17.182Z,6.03
2024-01-05T07:23:44.410Z,5.94
2024-01-05T07:26:11.274Z,5.94
2024-01-05T07:28:38.825Z,5.92
2024-01-05T07:31:09.739Z,5.88
2024-01-05T07:33:43.664Z,5.98
2024-01-05T07:36:10.469Z,5.96
2024-01-05T07:38:37.330Z,5.96
2024-01-05T07:41:04.465Z,5.97
2024-01-05T07:43:31.595Z,5.98
2024-01-05T07:45:58.411Z,6.05
2024-01-05T07:48:26.979Z,6.04
2024-01-05T07:50:53.756Z,6.06
2024-01-05T07:53:20.489Z,5.99
2024-01-05T07:55:47.345Z,6.00
2024-01-05T07:58:14.371Z,5.99
2024-01-05T08:00:41.265Z,6.00
2024-01-05T08:03:08.339Z,5.99
2024-01-05T08:05:35.250Z,5.99
2024-01-05T08:08:01.955Z,6.02
2024-01-05T08:10:28.765Z,5.97
2024-01-05T08:12:55.606Z,6.00
2024-01-05T08:15:22.535Z,6.07
2024-01-05T08:18:04.198Z,6.07
2024-01-05T08:20:33.842Z,6.08
2024-01-05T08:23:01.563Z,6.07
2024-01-05T08:25:28.270Z,6.06
2024-01-05T08:27:54.987Z,6.09
2024-01-05T08:30:22.599Z,6.11
2024-01-05T08:32:53.389Z,6.13
2024-01-05T08:35:20.234Z,6.09
2024-01-05T08:37:47.021Z,6.10
2024-01-05T08:40:13.949Z,6.14
2024-01-05T08:42:42.280Z,6.12
2024-01-05T08:45:09.655Z,6.16
2024-01-05T08:47:45.104Z,6.18
2024-01-05T08:50:11.965Z,6.18
2024-01-05T08:52:38.673Z,6.20
2024-01-05T08:55:06.230Z,6.24
2024-01-05T08:57:33.066Z,6.24
2024-01-05T08:59:59.900Z,6.23
2024-01-05T09:02:27.402Z,6.24
2024-01-05T09:04:54.280Z,6.25
2024-01-05T09:07:21.272Z,6.29
2024-01-05T09:09:48.183Z,6.27
2024-01-05T09:12:15.299Z,6.30
2024-01-05T09:14:44.411Z,6.29
2024-01-05T09:17:11.116Z,6.33
2024-01-05T09:19:38.078Z,6.32
2024-01-05T09:22:04.978Z,6.35
2024-01-05T09:24:32.717Z,6.39
2024-01-05T09:27:01.625Z,6.40
2024-01-05T09:29:28.486Z,6.43
2024-01-05T09:31:55.281Z,6.44
2024-01-05T09:34:22.195Z,6.43
2024-01-05T09:36:49.364Z,6.44
2024-01-05T09:39:36.167Z,6.45
2024-01-05T09:42:23.449Z,6.45
2024-01-05T09:45:12.071Z,6.51
2024-01-05T09:47:59.358Z,6.54
2024-01-05T09:50:54.320Z,6.55
2024-01-05T09:53:41.010Z,6.64
2024-01-05T09:56:28.348Z,6.69
2024-01-05T09:59:18.510Z,6.74
2024-01-05T10:02:10.306Z,6.80
2024-01-05T10:04:57.119Z,6.85
2024-01-05T10:07:44.645Z,6.89
2024-01-05T10:11:03.042Z,6.87
2024-01-05T10:13:56.987Z,6.91
2024-01-05T10:16:45.066Z,6.94
2024-01-05T10:19:32.293Z,6.92
2024-01-05T10:22:20.849Z,6.95
2024-01-05T10:25:18.015Z,6.94
2024-01-05T10:28:39.047Z,6.93
2024-01-05T10:31:25.802Z,6.99
2024-01-05T10:34:12.842Z,7.00
2024-01-05T10:37:06.223Z,6.98
2024-01-05T10:39:53.803Z,7.01
2024-01-05T10:42:40.705Z,7.04
2024-01-05T10:45:27.801Z,7.07
2024-01-05T10:48:15.501Z,7.09
2024-01-05T10:51:03.095Z,7.10
2024-01-05T10:53:50.829Z,7.12
2024-01-05T10:56:40.127Z,7.12
2024-01-05T10:59:26.866Z,7.14
2024-01-05T11:02:36.154Z,7.10
2024-01-05T11:05:24.377Z,7.13
2024-01-05T11:08:30.145Z,7.06
2024-01-05T11:11:25.761Z,7.04
2024-01-05T11:14:23.322Z,7.01
2024-01-05T11:17:15.875Z,7.05
2024-01-05T11:20:31.918Z,7.03
2024-01-05T11:23:20.779Z,7.08
2024-01-05T11:26:09.702Z,7.10
2024-01-05T11:28:56.356Z,7.12
2024-01-05T11:31:49.200Z,7.13
2024-01-05T11:34:37.568Z,7.14
2024-01-05T11:37:32.107Z,7.14
2024-01-05T11:40:34.143Z,7.14
2024-01-05T11:43:34.567Z,7.15
2024-01-05T11:46:25.553Z,7.17
2024-01-05T11:49:35.988Z,7.15
2024-01-05T11:52:24.360Z,7.20
2024-01-05T11:55:14.147Z,7.24
2024-01-05T11:58:00.939Z,7.26
2024-01-05T12:00:51.760Z,7.29
2024-01-05T12:03:39.973Z,7.30
2024-01-05T12:06:26.793Z,7.31
2024-01-05T12:09:13.510Z,7.34
2024-01-05T12:12:17.366Z,7.31
2024-01-05T12:15:10.359Z,7.32
2024-01-05T12:18:04.813Z,7.34
2024-01-05T12:21:01.644Z,7.35
2024-01-05T12:23:53.171Z,7.37
2024-01-05T12:26:40.779Z,7.41
2024-01-05T12:29:27.670Z,7.43
2024-01-05T12:32:14.479Z,7.46
2024-01-05T12:35:02.331Z,7.47
2024-01-05T12:37:53.647Z,7.47
2024-01-05T12:40:40.624Z,7.47
2024-01-05T12:43:27.282Z,7.48
2024-01-05T12:46:14.198Z,7.48
2024-01-05T12:49:18.231Z,7.47
2024-01-05T12:52:09.114Z,7.48
2024-01-05T12:54:55.767Z,7.51
2024-01-05T12:57:42.496Z,7.52
2024-01-05T13:00:29.893Z,7.54
2024-01-05T13:03:17.790Z,7.56
2024-01-05T13:06:09.226Z,7.57
2024-01-05T13:08:56.775Z,7.61
2024-01-05T13:11:51.739Z,7.62
2024-01-05T13:14:41.271Z,7.64
2024-01-05T13:17:28.016Z,7.68
2024-01-05T13:20:15.925Z,7.71
2024-01-05T13:23:02.619Z,7.73
2024-01-05T13:25:49.357Z,7.74
2024-01-05T13:28:38.908Z,7.76
2024-01-05T13:31:25.738Z,7.77
2024-01-05T13:34:12.703Z,7.79
2024-01-05T13:37:02.374Z,7.80
2024-01-05T13:39:49.020Z,7.81
2024-01-05T13:42:35.883Z,7.80
2024-01-05T13:45:22.627Z,7.81
2024-01-05T13:48:09.366Z,7.82
2024-01-05T13:50:56.087Z,7.86
2024-01-05T13:53:42.779Z,7.86
2024-01-05T13:56:31.489Z,7.86
2024-01-05T13:59:18.181Z,7.85
2024-01-05T14:02:05.040Z,7.86
2024-01-05T14:04:52.189Z,7.84
2024-01-05T14:07:41.598Z,7.85
2024-01-05T14:10:28.280Z,7.87
2024-01-05T14:13:14.958Z,7.86
2024-01-05T14:16:01.676Z,7.86
2024-01-05T14:18:48.598Z,7.86
2024-01-05T14:21:35.956Z,8.17
2024-01-05T14:24:25.546Z,8.26
2024-01-05T14:27:12.373Z,8.19
2024-01-05T14:29:59.522Z,8.12
2024-01-05T14:32:46.442Z,8.07
2024-01-05T14:35:33.165Z,8.01
2024-01-05T14:38:19.870Z,7.98
2024-01-05T14:41:07.083Z,7.96
2024-01-05T14:43:53.808Z,7.94
2024-01-05T14:46:40.450Z,7.94
2024-01-05T14:49:27.342Z,7.91
2024-01-05T14:52:15.146Z,7.91
2024-01-05T14:55:02.536Z,7.89
2024-01-05T14:57:49.268Z,7.87
2024-01-05T15:00:36.026Z,7.87
2024-01-05T15:03:23.199Z,7.85
2024-01-05T15:06:10.639Z,7.83
2024-01-05T15:08:57.430Z,7.81
2024-01-05T15:11:44.114Z,7.79
2024-01-05T15:14:33.403Z,7.76
2024-01-05T15:17:20.142Z,7.76
2024-01-05T15:20:07.437Z,7.74
2024-01-05T15:22:54.235Z,7.74
2024-01-05T15:25:41.190Z,7.74
2024-01-05T15:28:29.115Z,7.72
2024-01-05T15:31:22.206Z,7.70
2024-01-05T15:34:09.366Z,7.69
2024-01-05T15:36:56.293Z,7.66
2024-01-05T15:39:43.282Z,7.66
2024-01-05T15:42:30.312Z,7.65
2024-01-05T15:45:17.388Z,7.63
2024-01-05T15:48:04.616Z,7.62
2024-01-05T15:50:51.486Z,7.60
2024-01-05T15:53:38.211Z,7.59
2024-01-05T15:56:24.957Z,7.56
2024-01-05T15:59:13.465Z,7.55
2024-01-05T16:02:00.608Z,7.53
2024-01-05T16:04:47.338Z,7.53
2024-01-05T16:07:35.937Z,7.51
2024-01-05T16:10:22.705Z,7.50
2024-01-05T16:13:09.548Z,7.48
2024-01-05T16:16:11.697Z,7.43
2024-01-05T16:18:59.000Z,7.44
2024-01-05T16:21:46.013Z,7.42
2024-01-05T16:24:32.903Z,7.35
2024-01-05T16:27:19.546Z,7.37
2024-01-05T16:30:07.516Z,7.34
2024-01-05T16:32:54.370Z,7.32
2024-01-05T16:35:41.270Z,7.29
2024-01-05T16:38:28.280Z,7.27
2024-01-05T16:41:16.486Z,7.24
2024-01-05T16:44:03.507Z,7.27
2024-01-05T16:46:53.034Z,7.25
2024-01-05T16:49:39.844Z,7.24
2024-01-05T16:52:29.091Z,7.23
2024-01-05T16:55:15.887Z,7.21
2024-01-05T16:58:40.696Z,7.15
2024-01-05T17:01:33.418Z,7.17
2024-01-05T17:04:23.868Z,7.17
2024-01-05T17:07:11.161Z,7.17
2024-01-05T17:09:58.022Z,7.17
2024-01-05T17:12:45.115Z,7.15
2024-01-05T17:15:32.155Z,7.14
2024-01-05T17:18:19.192Z,7.12
2024-01-05T17:21:10.097Z,7.11
2024-01-05T17:23:56.990Z,7.07
2024-01-05T17:26:43.943Z,7.05
2024-01-05T17:29:34.094Z,7.06
2024-01-05T17:32:21.727Z,7.03
2024-01-05T17:35:09.608Z,7.03
2024-01-05T17:37:57.029Z,6.99
2024-01-05T17:40:44.988Z,6.98
2024-01-05T17:43:31.973Z,6.99
2024-01-05T17:46:18.851Z,6.96
2024-01-05T17:49:05.690Z,6.97
2024-01-05T17:51:52.771Z,6.94
2024-01-05T17:54:40.984Z,6.90
2024-01-05T17:57:27.860Z,6.84
2024-01-05T17:59:54.628Z,6.83
2024-01-05T18:02:21.377Z,6.85
2024-01-05T18:04:48.315Z,6.85
2024-01-05T18:07:17.893Z,6.85
2024-01-05T18:09:44.834Z,6.84
2024-01-05T18:12:11.883Z,6.82
2024-01-05T18:14:41.034Z,6.80
2024-01-05T18:17:08.054Z,6.81
2024-01-05T18:19:35.317Z,6.78
2024-01-05T18:22:02.436Z,6.81
2024-01-05T18:24:29.514Z,6.80
2024-01-05T18:26:56.595Z,6.80
2024-01-05T18:29:28.943Z,6.77
2024-01-05T18:32:00.202Z,6.66
2024-01-05T18:34:27.785Z,6.62
2024-01-05T18:36:55.356Z,6.61
2024-01-05T18:39:22.525Z,6.62
2024-01-05T18:41:49.982Z,6.60
2024-01-05T18:44:16.924Z,6.58
2024-01-05T18:46:44.033Z,6.58
2024-01-05T18:49:11.461Z,6.58
2024-01-05T18:51:38.599Z,6.58
2024-01-05T18:54:07.362Z,6.51
2024-01-05T18:56:34.676Z,6.48
2024-01-05T18:59:03.097Z,6.52
2024-01-05T19:01:31.004Z,6.48
2024-01-05T19:03:58.584Z,6.48
2024-01-05T19:06:25.901Z,6.41
2024-01-05T19:08:53.067Z,6.41
2024-01-05T19:11:20.134Z,6.41
2024-01-05T19:13:46.956Z,6.44
2024-01-05T19:16:14.220Z,6.42
2024-01-05T19:18:41.724Z,6.38
2024-01-05T19:21:11.437Z,6.32
2024-01-05T19:23:38.311Z,6.38
2024-01-05T19:26:05.367Z,6.35
2024-01-05T19:28:32.151Z,6.30
2024-01-05T19:30:59.230Z,6.21
2024-01-05T19:33:26.324Z,6.20
2024-01-05T19:35:53.256Z,6.21
2024-01-05T19:38:20.080Z,6.18
2024-01-05T19:40:47.308Z,6.20
2024-01-05T19:43:15.597Z,6.25
2024-01-05T19:45:42.636Z,6.24
2024-01-05T19:48:09.879Z,6.24
2024-01-05T19:50:38.393Z,6.23
2024-01-05T19:53:05.906Z,6.20
2024-01-05T19:55:33.427Z,6.18
2024-01-05T19:58:00.983Z,6.14
2024-01-05T20:00:46.858Z,6.15
2024-01-05T20:03:16.732Z,6.10
2024-01-05T20:05:43.713Z,6.12
2024-01-05T20:08:10.676Z,6.13
2024-01-05T20:10:37.555Z,6.14
2024-01-05T20:13:08.053Z,6.08
2024-01-05T20:15:36.332Z,6.11
2024-01-05T20:18:20.222Z,6.09
2024-01-05T20:20:47.093Z,6.09
2024-01-05T20:23:15.065Z,6.05
2024-01-05T20:25:42.024Z,6.04
2024-01-05T20:28:08.869Z,6.04
2024-01-05T20:30:37.126Z,6.03
2024-01-05T20:33:04.666Z,5.98
2024-01-05T20:35:31.797Z,5.99
2024-01-05T20:37:58.543Z,5.98
2024-01-05T20:40:25.379Z,5.91
2024-01-05T20:42:52.321Z,5.90
2024-01-05T20:45:19.242Z,5.97
2024-01-05T20:47:46.276Z,5.96
2024-01-05T20:50:13.744Z,5.96
2024-01-05T20:52:41.301Z,5.96
2024-01-05T20:55:08.609Z,5.98
2024-01-05T20:57:36.045Z,5.98
2024-01-05T21:00:02.985Z,6.02
2024-01-05T21:02:30.589Z,5.96
2024-01-05T21:04:57.527Z,5.94
2024-01-05T21:07:25.745Z,5.85
2024-01-05T21:09:55.333Z,5.83
2024-01-05T21:12:23.066Z,5.83
2024-01-05T21:14:49.964Z,5.88
2024-01-05T21:17:16.720Z,5.82
2024-01-05T21:19:43.660Z,5.78
2024-01-05T21:22:10.680Z,5.77
2024-01-05T21:24:44.762Z,5.77
2024-01-05T21:27:13.696Z,5.80
2024-01-05T21:29:46.482Z,5.77
2024-01-05T21:32:16.933Z,5.73
2024-01-05T21:34:44.678Z,5.76
2024-01-05T21:37:14.449Z,5.74
2024-01-05T21:39:44.640Z,5.71
2024-01-05T21:42:12.104Z,5.67
2024-01-05T21:44:40.256Z,5.69
2024-01-05T21:47:07.091Z,5.65
2024-01-05T21:49:36.781Z,5.68
2024-01-05T21:52:04.371Z,5.70
2024-01-05T21:54:31.309Z,5.64
2024-01-05T21:56:59.268Z,5.70
2024-01-05T21:59:26.632Z,5.65
2024-01-05T22:01:56.416Z,5.64
2024-01-05T22:04:24.251Z,5.60
2024-01-05T22:06:51.285Z,5.58
2024-01-05T22:09:19.970Z,5.61
2024-01-05T22:11:47.130Z,5.62
2024-01-05T22:14:15.016Z,5.58
2024-01-05T22:16:42.634Z,5.59
2024-01-05T22:19:12.520Z,5.60
2024-01-05T22:21:42.194Z,5.56
2024-01-05T22:24:09.108Z,5.56
2024-01-05T22:26:36.191Z,5.55
2024-01-05T22:29:04.326Z,5.54
2024-01-05T22:31:32.087Z,5.59
2024-01-05T22:33:59.558Z,5.56
2024-01-05T22:36:26.732Z,5.56
2024-01-05T22:38:53.550Z,5.50
2024-01-05T22:41:22.740Z,5.47
2024-01-05T22:43:49.569Z,5.48
2024-01-05T22:46:18.348Z,5.47
2024-01-05T22:48:47.415Z,5.49
2024-01-05T22:51:25.550Z,5.36
2024-01-05T22:53:53.711Z,5.43
2024-01-05T22:56:21.135Z,5.44
2024-01-05T22:58:47.893Z,5.40
2024-01-05T23:01:21.380Z,5.36
2024-01-05T23:03:49.069Z,5.33
2024-01-05T23:06:16.647Z,5.36
2024-01-05T23:08:43.742Z,5.33
2024-01-05T23:11:11.211Z,5.43
2024-01-05T23:13:38.558Z,5.36
2024-01-05T23:16:07.801Z,5.30
2024-01-05T23:18:35.012Z,5.37
2024-01-05T23:21:02.087Z,5.43
2024-01-05T23:23:28.855Z,5.40
2024-01-05T23:25:55.632Z,5.35
2024-01-05T23:28:22.462Z,5.33
2024-01-05T23:30:49.843Z,5.33
2024-01-05T23:33:18.762Z,5.31
2024-01-05T23:35:45.713Z,5.38
2024-01-05T23:38:12.519Z,5.38
2024-01-05T23:40:39.345Z,5.36
2024-01-05T23:43:06.197Z,5.30
2024-01-05T23:45:33.092Z,5.27
2024-01-05T23:48:00.003Z,5.26
2024-01-05T23:50:26.827Z,5.23
2024-01-05T23:52:54.854Z,5.24
2024-01-05T23:55:22.951Z,5.22
2024-01-05T23:57:49.845Z,5.11
